Time;durP1;ratioP1;P1;durP2;ratioP2;P2;SDS_P1;SDS_P2;PMS_P1;PMS_P2;Temp;Humidity;BMP_temperature;BMP_pressure;BME280_temperature;BME280_humidity;BME280_pressure;Samples;Min_cycle;Max_cycle;Signal;HPM_P1;HPM_P2
2023/11/21 00:00:14;;;;;;;35.73;23.97;;;10.90;99.90;;;;;;5035395;28;20227;-87
2023/11/21 00:02:40;;;;;;;29.33;21.83;;;10.80;99.90;;;;;;5035309;28;20179;-87
2023/11/21 00:05:10;;;;;;;34.83;23.47;;;10.90;99.90;;;;;;5045690;28;20180;-85
2023/11/21 00:07:37;;;;;;;35.40;23.60;;;10.80;99.90;;;;;;5036326;28;20586;-86
2023/11/21 00:10:05;;;;;;;32.40;22.97;;;10.80;99.90;;;;;;5034024;28;20265;-85
2023/11/21 00:12:31;;;;;;;32.13;23.50;;;10.90;99.90;;;;;;5035637;28;20177;-85
2023/11/21 00:14:57;;;;;;;31.47;23.40;;;10.70;99.90;;;;;;5034999;28;20273;-87
2023/11/21 00:17:24;;;;;;;32.70;24.10;;;10.80;99.90;;;;;;5042487;28;20217;-86
2023/11/21 00:19:52;;;;;;;34.03;23.40;;;10.80;99.90;;;;;;5036552;28;20186;-86
2023/11/21 00:22:17;;;;;;;36.60;23.07;;;10.70;99.90;;;;;;5034370;28;20206;-85
2023/11/21 00:24:43;;;;;;;34.10;24.17;;;10.70;99.90;;;;;;5036468;28;20651;-85
2023/11/21 00:27:09;;;;;;;32.77;23.53;;;10.70;99.90;;;;;;5039546;28;20174;-86
2023/11/21 00:29:34;;;;;;;32.63;24.43;;;10.70;99.90;;;;;;5038857;28;20628;-86
2023/11/21 00:32:00;;;;;;;37.57;24.30;;;10.80;99.90;;;;;;5049048;28;20179;-86
2023/11/21 00:34:27;;;;;;;33.67;23.53;;;10.80;99.90;;;;;;5053818;28;20155;-87
2023/11/21 00:36:56;;;;;;;35.93;24.23;;;10.70;99.90;;;;;;5051450;28;20250;-89
2023/11/21 00:39:26;;;;;;;34.17;24.20;;;10.70;99.90;;;;;;5039154;28;20231;-90
2023/11/21 00:41:52;;;;;;;38.13;24.30;;;10.80;99.90;;;;;;5034173;28;20176;-88
2023/11/21 00:44:17;;;;;;;34.20;23.37;;;10.70;99.90;;;;;;5041406;28;20692;-90
2023/11/21 00:46:43;;;;;;;32.70;23.70;;;10.70;99.90;;;;;;5046507;28;20164;-89
2023/11/21 00:49:09;;;;;;;31.80;22.83;;;10.60;99.90;;;;;;5024268;28;20226;-90
2023/11/21 00:51:35;;;;;;;29.53;22.30;;;10.70;99.90;;;;;;5037992;28;20217;-89
2023/11/21 00:54:01;;;;;;;31.67;22.50;;;10.70;99.90;;;;;;5037804;28;20166;-91
2023/11/21 00:56:27;;;;;;;31.87;22.73;;;10.60;99.90;;;;;;5040095;28;20222;-89
2023/11/21 00:58:54;;;;;;;30.37;22.10;;;10.60;99.90;;;;;;5038925;28;20264;-90
2023/11/21 01:01:21;;;;;;;30.47;23.47;;;10.70;99.90;;;;;;5038689;28;20231;-90
2023/11/21 01:03:48;;;;;;;35.43;24.00;;;10.80;99.90;;;;;;5039743;28;20743;-87
2023/11/21 01:06:14;;;;;;;34.17;24.40;;;11.00;99.90;;;;;;5039127;28;20664;-89
2023/11/21 01:08:40;;;;;;;36.00;23.23;;;10.90;99.90;;;;;;5039159;28;20637;-91
2023/11/21 01:11:08;;;;;;;34.63;22.67;;;10.80;99.90;;;;;;5037686;28;20183;-92
2023/11/21 01:13:35;;;;;;;34.90;23.70;;;10.70;99.90;;;;;;5035135;28;20177;-89
2023/11/21 01:16:01;;;;;;;35.03;23.63;;;10.60;99.90;;;;;;5035315;28;20657;-92
2023/11/21 01:18:26;;;;;;;32.07;22.93;;;10.60;99.90;;;;;;5037213;28;20209;-89
2023/11/21 01:20:53;;;;;;;29.93;22.70;;;10.80;99.90;;;;;;5037438;28;20222;-92
2023/11/21 01:23:19;;;;;;;33.87;22.90;;;10.70;99.90;;;;;;5037887;28;20218;-92
2023/11/21 01:25:45;;;;;;;31.97;22.93;;;10.90;99.90;;;;;;5043194;28;20176;-89
2023/11/21 01:28:11;;;;;;;31.10;23.20;;;10.90;99.90;;;;;;5045608;28;20168;-91
2023/11/21 01:30:37;;;;;;;32.87;22.70;;;10.90;99.90;;;;;;5052377;28;20191;-90
2023/11/21 01:33:03;;;;;;;31.80;22.93;;;10.90;99.90;;;;;;5047015;28;20171;-91
2023/11/21 01:35:29;;;;;;;30.23;21.50;;;11.00;99.90;;;;;;5048780;28;20260;-91
2023/11/21 01:37:54;;;;;;;31.13;22.97;;;11.00;99.90;;;;;;5049836;28;20191;-92
2023/11/21 01:40:20;;;;;;;30.70;22.93;;;11.00;99.90;;;;;;5049563;28;20655;-90
2023/11/21 01:42:47;;;;;;;32.33;22.63;;;10.80;99.90;;;;;;5045695;28;20180;-86
2023/11/21 01:45:14;;;;;;;35.90;24.03;;;10.90;99.90;;;;;;5037807;28;20202;-86
2023/11/21 01:47:41;;;;;;;32.10;22.20;;;11.20;99.90;;;;;;5035518;28;20245;-86
2023/11/21 01:50:08;;;;;;;32.40;22.23;;;11.00;99.90;;;;;;5036001;28;20175;-86
2023/11/21 01:52:35;;;;;;;33.27;23.00;;;11.10;99.90;;;;;;5037192;28;20248;-87
2023/11/21 01:55:03;;;;;;;33.90;21.97;;;11.00;99.90;;;;;;5035813;28;20179;-86
2023/11/21 01:57:29;;;;;;;29.47;21.53;;;10.90;99.90;;;;;;5035511;28;20213;-88
2023/11/21 01:59:56;;;;;;;29.83;22.87;;;10.80;99.90;;;;;;5035786;28;20177;-86
2023/11/21 02:02:21;;;;;;;29.47;21.13;;;10.90;99.90;;;;;;5018683;28;20213;-85
2023/11/21 02:04:47;;;;;;;32.03;23.23;;;10.90;99.90;;;;;;5035529;28;20190;-86
2023/11/21 02:07:14;;;;;;;29.87;21.53;;;11.20;99.90;;;;;;5035449;28;20171;-86
2023/11/21 02:09:42;;;;;;;32.90;22.80;;;11.20;99.90;;;;;;5035851;28;20187;-86
2023/11/21 02:12:10;;;;;;;27.40;20.97;;;11.00;99.90;;;;;;5037891;28;20170;-86
2023/11/21 02:14:36;;;;;;;27.53;20.83;;;11.00;99.90;;;;;;5044988;28;20176;-86
2023/11/21 02:17:03;;;;;;;29.13;20.93;;;11.00;99.90;;;;;;5043476;28;20702;-86
2023/11/21 02:19:30;;;;;;;31.37;21.67;;;11.10;99.90;;;;;;5019233;28;20249;-87
2023/11/21 02:22:06;;;;;;;34.00;23.13;;;11.10;99.90;;;;;;5035301;28;20197;-86
2023/11/21 02:24:32;;;;;;;31.57;21.57;;;11.00;99.90;;;;;;5034531;28;20191;-86
2023/11/21 02:26:58;;;;;;;29.87;21.03;;;11.00;99.90;;;;;;5034199;28;20201;-85
2023/11/21 02:29:27;;;;;;;29.10;21.60;;;10.90;99.90;;;;;;5035466;28;20171;-86
2023/11/21 02:31:54;;;;;;;27.37;20.17;;;10.70;99.90;;;;;;5033934;28;20165;-86
2023/11/21 02:34:20;;;;;;;30.00;21.40;;;10.70;99.90;;;;;;5042276;28;20173;-87
2023/11/21 02:36:49;;;;;;;29.27;20.07;;;10.70;99.90;;;;;;5054687;28;20306;-86
2023/11/21 02:39:16;;;;;;;28.67;21.57;;;10.90;99.90;;;;;;5053730;28;20173;-86
2023/11/21 02:41:43;;;;;;;28.90;20.37;;;10.60;99.90;;;;;;5054621;28;20263;-87
2023/11/21 02:44:10;;;;;;;30.20;21.83;;;10.70;99.90;;;;;;5056353;28;20173;-86
2023/11/21 02:46:36;;;;;;;30.57;20.90;;;10.50;99.90;;;;;;5057338;28;20183;-86
2023/11/21 02:49:03;;;;;;;29.10;20.87;;;10.60;99.90;;;;;;5053958;28;20169;-88
2023/11/21 02:51:29;;;;;;;25.00;19.13;;;10.60;99.90;;;;;;5041012;28;20191;-86
2023/11/21 02:54:02;;;;;;;28.73;19.53;;;10.80;99.90;;;;;;5060800;28;20177;-86
2023/11/21 02:56:28;;;;;;;25.67;19.87;;;10.70;99.90;;;;;;5062805;28;20227;-87
2023/11/21 02:58:59;;;;;;;27.27;18.23;;;10.60;99.90;;;;;;5074076;28;20200;-86
2023/11/21 03:01:25;;;;;;;28.77;19.63;;;10.70;99.90;;;;;;5075090;28;20210;-87
2023/11/21 03:03:51;;;;;;;27.30;20.20;;;10.60;99.90;;;;;;5075763;28;20241;-86
2023/11/21 03:06:18;;;;;;;26.60;19.13;;;10.60;99.90;;;;;;5066978;28;20381;-91
2023/11/21 03:08:44;;;;;;;30.20;20.07;;;10.60;99.90;;;;;;5059123;28;20202;-89
2023/11/21 03:11:10;;;;;;;27.53;20.30;;;10.80;99.90;;;;;;5058078;28;20189;-88
2023/11/21 03:13:35;;;;;;;29.93;21.80;;;10.80;99.90;;;;;;5074046;28;20192;-85
2023/11/21 03:16:01;;;;;;;29.73;20.30;;;10.90;99.90;;;;;;5076216;28;20194;-85
2023/11/21 03:18:29;;;;;;;30.37;21.70;;;10.60;99.90;;;;;;5078469;28;20164;-86
2023/11/21 03:20:54;;;;;;;28.00;20.97;;;10.70;99.90;;;;;;5077897;28;20248;-85
2023/11/21 03:23:20;;;;;;;27.33;20.33;;;10.70;99.90;;;;;;5075235;28;20275;-87
2023/11/21 03:25:46;;;;;;;25.90;19.60;;;10.60;99.90;;;;;;5074757;28;20177;-90
2023/11/21 03:28:11;;;;;;;27.60;20.77;;;10.60;99.90;;;;;;5057936;28;20176;-91
2023/11/21 03:30:37;;;;;;;28.07;21.40;;;10.70;99.90;;;;;;5064219;28;20726;-91
2023/11/21 03:33:03;;;;;;;29.40;22.03;;;10.80;99.90;;;;;;5061662;28;20165;-92
2023/11/21 03:35:28;;;;;;;28.27;20.53;;;10.90;99.90;;;;;;5064134;28;20179;-92
2023/11/21 03:37:54;;;;;;;28.40;21.17;;;11.00;99.90;;;;;;5055515;28;20193;-87
2023/11/21 03:40:21;;;;;;;32.07;21.97;;;11.10;99.90;;;;;;5054297;28;20701;-87
2023/11/21 03:42:47;;;;;;;32.00;22.67;;;11.20;99.90;;;;;;5053253;28;20185;-87
2023/11/21 03:45:14;;;;;;;31.13;22.00;;;11.20;99.90;;;;;;5053158;28;20179;-86
2023/11/21 03:47:41;;;;;;;30.13;21.17;;;11.10;99.90;;;;;;5054008;28;20575;-87
2023/11/21 03:50:08;;;;;;;27.87;19.87;;;11.00;99.90;;;;;;5052365;28;20195;-86
2023/11/21 03:52:34;;;;;;;26.60;19.70;;;10.80;99.90;;;;;;5053896;28;20175;-87
2023/11/21 03:55:00;;;;;;;30.97;21.10;;;10.90;99.90;;;;;;5053115;28;20212;-87
2023/11/21 03:57:27;;;;;;;28.00;20.33;;;10.90;99.90;;;;;;5052976;28;20223;-87
2023/11/21 03:59:53;;;;;;;26.27;19.80;;;11.00;99.90;;;;;;5053667;28;20175;-88
2023/11/21 04:02:19;;;;;;;26.53;20.37;;;11.10;99.90;;;;;;5052578;28;20542;-87
2023/11/21 04:04:45;;;;;;;28.03;20.80;;;11.10;99.90;;;;;;5054757;28;20186;-85
2023/11/21 04:07:11;;;;;;;28.73;21.07;;;11.10;99.90;;;;;;5060472;28;20245;-85
2023/11/21 04:09:36;;;;;;;26.27;20.70;;;11.00;99.90;;;;;;5060728;28;20268;-87
2023/11/21 04:12:03;;;;;;;24.37;20.43;;;10.90;99.90;;;;;;5065097;28;20193;-85
2023/11/21 04:14:28;;;;;;;28.30;20.13;;;10.80;99.90;;;;;;5060536;28;20528;-87
2023/11/21 04:16:54;;;;;;;29.23;20.93;;;10.80;99.90;;;;;;5061165;28;20226;-87
2023/11/21 04:19:20;;;;;;;28.23;20.70;;;10.80;99.90;;;;;;5056043;28;20639;-91
2023/11/21 04:21:46;;;;;;;27.60;21.60;;;10.90;99.90;;;;;;5054740;28;20347;-91
2023/11/21 04:24:12;;;;;;;26.50;20.60;;;11.00;99.90;;;;;;5053591;28;20220;-89
2023/11/21 04:26:37;;;;;;;28.70;21.20;;;10.90;99.90;;;;;;5053743;28;20191;-87
2023/11/21 04:29:04;;;;;;;24.77;21.00;;;11.00;99.90;;;;;;5053448;28;20176;-89
2023/11/21 04:31:30;;;;;;;27.67;21.07;;;11.00;99.90;;;;;;5053945;28;20545;-92
2023/11/21 04:33:56;;;;;;;30.67;22.97;;;10.90;99.90;;;;;;5052704;28;20629;-88
2023/11/21 04:36:21;;;;;;;28.50;21.97;;;10.90;99.90;;;;;;5054292;28;20216;-92
2023/11/21 04:38:47;;;;;;;27.13;20.93;;;11.00;99.90;;;;;;5053892;28;20183;-92
2023/11/21 04:41:13;;;;;;;29.23;20.47;;;10.90;99.90;;;;;;5054042;28;20208;-91
2023/11/21 04:43:38;;;;;;;27.37;21.07;;;10.80;99.90;;;;;;5054045;28;20264;-91
2023/11/21 04:46:04;;;;;;;31.77;21.93;;;10.90;99.90;;;;;;5056321;28;20619;-91
2023/11/21 04:48:30;;;;;;;26.33;21.20;;;10.80;99.90;;;;;;5054415;28;20182;-89
2023/11/21 04:50:56;;;;;;;26.67;21.37;;;10.90;99.90;;;;;;5053841;28;20232;-88
2023/11/21 04:53:22;;;;;;;31.97;23.30;;;11.00;99.90;;;;;;5056038;28;20277;-88
2023/11/21 04:55:48;;;;;;;30.10;21.33;;;11.00;99.90;;;;;;5055143;28;20228;-90
2023/11/21 04:58:14;;;;;;;25.87;20.43;;;11.10;99.90;;;;;;5056963;28;20653;-89
2023/11/21 05:00:40;;;;;;;29.73;21.87;;;11.10;99.90;;;;;;5055388;28;20638;-89
2023/11/21 05:03:07;;;;;;;29.73;22.07;;;11.20;99.90;;;;;;5056991;28;20173;-91
2023/11/21 05:05:33;;;;;;;30.13;22.97;;;11.20;99.90;;;;;;5054463;28;20713;-88
2023/11/21 05:08:01;;;;;;;29.20;22.50;;;11.20;99.90;;;;;;5056745;28;20168;-87
2023/11/21 05:10:26;;;;;;;26.93;22.37;;;11.30;99.90;;;;;;5058834;28;20159;-91
2023/11/21 05:12:52;;;;;;;31.43;22.50;;;11.40;99.90;;;;;;5057274;28;20658;-91
2023/11/21 05:15:18;;;;;;;29.47;21.87;;;11.30;99.90;;;;;;5061417;28;20647;-90
2023/11/21 05:17:45;;;;;;;36.27;23.20;;;11.30;99.90;;;;;;5060715;28;20223;-90
2023/11/21 05:20:13;;;;;;;28.67;22.53;;;11.20;99.90;;;;;;5063711;28;20248;-90
2023/11/21 05:22:39;;;;;;;29.83;22.53;;;11.10;99.90;;;;;;5065226;28;20178;-87
2023/11/21 05:25:07;;;;;;;27.60;21.40;;;11.10;99.90;;;;;;5072992;28;20427;-88
2023/11/21 05:27:33;;;;;;;31.07;21.97;;;11.10;99.90;;;;;;5073306;28;20171;-88
2023/11/21 05:29:59;;;;;;;33.53;23.20;;;11.30;99.90;;;;;;5061144;28;20195;-84
2023/11/21 05:32:26;;;;;;;31.33;22.93;;;11.30;99.90;;;;;;5065630;28;20181;-85
2023/11/21 05:34:52;;;;;;;31.20;23.00;;;11.30;99.90;;;;;;5062256;28;20536;-87
2023/11/21 05:37:18;;;;;;;29.07;21.93;;;11.30;99.90;;;;;;5058157;28;20216;-86
2023/11/21 05:39:44;;;;;;;28.30;21.63;;;11.20;99.90;;;;;;5066286;28;20269;-87
2023/11/21 05:42:10;;;;;;;25.90;20.97;;;11.10;99.90;;;;;;5073346;28;20166;-85
2023/11/21 05:44:37;;;;;;;27.13;21.53;;;11.20;99.90;;;;;;5078256;28;20298;-86
2023/11/21 05:47:03;;;;;;;30.13;21.67;;;11.30;99.90;;;;;;5069931;28;20186;-85
2023/11/21 05:49:32;;;;;;;29.17;21.97;;;11.30;99.90;;;;;;5059780;28;20266;-86
2023/11/21 05:51:57;;;;;;;28.63;21.43;;;11.30;99.90;;;;;;5057320;28;20176;-86
2023/11/21 05:54:23;;;;;;;32.33;22.53;;;11.30;99.90;;;;;;5056696;28;20240;-87
2023/11/21 05:56:49;;;;;;;29.33;20.80;;;11.10;99.90;;;;;;5055123;28;20226;-86
2023/11/21 05:59:15;;;;;;;25.83;19.70;;;11.00;99.90;;;;;;5060208;28;20175;-87
2023/11/21 06:01:41;;;;;;;26.80;20.70;;;11.00;99.90;;;;;;5063026;28;20190;-87
2023/11/21 06:04:10;;;;;;;24.17;18.93;;;11.00;99.90;;;;;;5061029;28;20175;-87
2023/11/21 06:06:36;;;;;;;28.60;20.10;;;11.30;99.90;;;;;;5059878;28;20197;-87
2023/11/21 06:09:02;;;;;;;29.80;21.57;;;11.10;99.90;;;;;;5072050;28;20180;-88
2023/11/21 06:11:28;;;;;;;30.07;20.17;;;11.20;99.90;;;;;;5056620;28;20648;-87
2023/11/21 06:13:53;;;;;;;27.10;20.93;;;11.10;99.90;;;;;;5055682;28;20173;-86
2023/11/21 06:16:19;;;;;;;31.13;21.10;;;11.20;99.90;;;;;;5058280;28;20208;-86
2023/11/21 06:18:46;;;;;;;29.03;21.10;;;11.10;99.90;;;;;;5056508;28;20269;-86
2023/11/21 06:21:13;;;;;;;26.13;21.03;;;11.30;99.90;;;;;;5041286;28;20193;-86
2023/11/21 06:23:41;;;;;;;27.10;22.57;;;11.30;99.90;;;;;;5055353;28;20230;-86
2023/11/21 06:26:06;;;;;;;32.00;22.27;;;11.40;99.90;;;;;;5054524;28;20177;-85
2023/11/21 06:28:32;;;;;;;27.93;22.10;;;11.40;99.90;;;;;;5061116;28;20180;-87
2023/11/21 06:30:58;;;;;;;36.07;21.73;;;11.30;99.90;;;;;;5078322;28;20245;-87
2023/11/21 06:33:27;;;;;;;26.47;21.00;;;11.20;99.90;;;;;;5074009;28;20399;-86
2023/11/21 06:35:54;;;;;;;45.97;27.27;;;11.20;99.90;;;;;;5074164;28;20209;-90
2023/11/21 06:38:27;;;;;;;35.73;25.53;;;11.40;99.90;;;;;;5066268;28;20169;-92
2023/11/21 06:40:54;;;;;;;31.27;22.93;;;11.50;99.90;;;;;;5059493;28;20177;-89
2023/11/21 06:43:23;;;;;;;27.13;21.67;;;11.50;99.90;;;;;;5061031;28;20167;-91
2023/11/21 06:45:49;;;;;;;29.83;20.87;;;11.60;99.90;;;;;;5061945;28;20165;-93
2023/11/21 06:48:15;;;;;;;24.53;19.87;;;11.30;99.90;;;;;;5066544;28;20677;-89
2023/11/21 06:50:41;;;;;;;24.20;19.50;;;11.20;99.90;;;;;;5067064;28;20636;-90
2023/11/21 06:53:08;;;;;;;29.50;21.53;;;11.30;99.90;;;;;;5065011;28;20172;-90
2023/11/21 06:55:34;;;;;;;24.57;20.27;;;11.30;99.90;;;;;;5067928;28;20825;-86
2023/11/21 06:58:00;;;;;;;30.20;22.90;;;11.40;99.90;;;;;;5067879;28;20180;-90
2023/11/21 07:00:27;;;;;;;29.00;21.63;;;11.50;99.90;;;;;;5070399;28;20162;-92
2023/11/21 07:02:54;;;;;;;27.20;21.63;;;11.60;99.90;;;;;;5077922;28;20181;-91
2023/11/21 07:05:21;;;;;;;31.07;22.70;;;11.60;99.90;;;;;;5066330;28;20169;-91
2023/11/21 07:08:20;;;;;;;31.80;23.00;;;11.80;99.90;;;;;;5062437;28;20161;-92
2023/11/21 07:10:47;;;;;;;37.23;22.80;;;11.60;99.90;;;;;;5058246;28;20639;-94
2023/11/21 07:13:13;;;;;;;28.20;21.67;;;11.60;99.90;;;;;;5028587;28;20175;-90
2023/11/21 07:15:40;;;;;;;27.33;21.63;;;11.60;99.90;;;;;;5047652;28;20226;-93
2023/11/21 07:18:07;;;;;;;29.73;21.90;;;11.70;99.90;;;;;;5047047;28;20183;-91
2023/11/21 07:20:33;;;;;;;28.93;22.70;;;11.80;99.90;;;;;;5046992;28;20189;-92
2023/11/21 07:22:59;;;;;;;32.53;23.03;;;11.70;99.90;;;;;;5051463;28;20538;-91
2023/11/21 07:25:25;;;;;;;33.17;23.60;;;11.70;99.90;;;;;;5047626;28;20192;-91
2023/11/21 07:27:52;;;;;;;34.93;23.63;;;11.80;99.90;;;;;;5046329;28;20190;-89
2023/11/21 07:30:18;;;;;;;34.87;25.40;;;11.90;99.90;;;;;;5048063;28;20178;-86
2023/11/21 07:32:44;;;;;;;33.77;26.20;;;11.80;99.90;;;;;;5047215;28;20194;-94
2023/11/21 07:35:10;;;;;;;40.37;25.40;;;11.70;99.90;;;;;;5046576;28;20177;-91
2023/11/21 07:37:36;;;;;;;35.80;27.67;;;11.60;99.90;;;;;;5051729;28;20211;-93
2023/11/21 07:40:02;;;;;;;38.93;27.53;;;11.60;99.90;;;;;;5044709;28;20178;-88
2023/11/21 07:42:28;;;;;;;40.70;26.80;;;11.60;99.90;;;;;;5044202;28;20175;-86
2023/11/21 07:44:54;;;;;;;35.00;26.87;;;11.60;99.90;;;;;;5052235;28;20625;-90
2023/11/21 07:47:21;;;;;;;39.27;27.77;;;11.50;99.90;;;;;;5054532;28;20567;-89
2023/11/21 07:49:47;;;;;;;30.67;24.93;;;11.50;99.90;;;;;;5056452;28;20185;-88
2023/11/21 07:52:16;;;;;;;35.40;25.37;;;11.50;99.90;;;;;;5055476;28;20167;-91
2023/11/21 07:54:42;;;;;;;39.43;25.90;;;11.50;99.90;;;;;;5055867;28;20169;-89
2023/11/21 07:57:07;;;;;;;33.77;24.07;;;11.40;99.90;;;;;;5057660;28;20220;-89
2023/11/21 07:59:33;;;;;;;40.27;26.13;;;11.50;99.90;;;;;;5056851;28;20233;-90
2023/11/21 08:01:59;;;;;;;38.67;26.10;;;11.60;99.90;;;;;;5057500;28;20267;-91
2023/11/21 08:04:25;;;;;;;44.27;27.10;;;11.70;99.90;;;;;;5058428;28;20189;-92
2023/11/21 08:06:50;;;;;;;40.23;28.27;;;11.60;99.90;;;;;;5067150;28;20178;-89
2023/11/21 08:09:17;;;;;;;44.37;27.87;;;11.60;99.90;;;;;;5071136;28;20173;-89
2023/11/21 08:11:46;;;;;;;43.27;26.83;;;11.70;99.90;;;;;;5063057;28;20174;-90
2023/11/21 08:14:12;;;;;;;37.93;27.80;;;11.70;99.90;;;;;;5063259;28;20184;-90
2023/11/21 08:16:39;;;;;;;40.20;26.93;;;11.60;99.90;;;;;;5064952;28;20213;-89
2023/11/21 08:19:11;;;;;;;41.20;27.63;;;11.60;99.90;;;;;;5056163;28;20180;-89
2023/11/21 08:21:39;;;;;;;36.20;26.37;;;11.60;99.90;;;;;;5058095;28;20215;-91
2023/11/21 08:24:10;;;;;;;41.90;27.03;;;11.50;99.90;;;;;;5054439;28;20175;-90
2023/11/21 08:26:37;;;;;;;37.77;26.00;;;11.50;99.90;;;;;;5060310;28;20173;-88
2023/11/21 08:29:03;;;;;;;40.60;25.43;;;11.60;99.90;;;;;;5063852;28;20245;-90
2023/11/21 08:31:30;;;;;;;38.60;25.50;;;11.60;99.90;;;;;;5056514;28;20212;-91
2023/11/21 08:33:55;;;;;;;40.50;26.40;;;11.70;99.90;;;;;;5054698;28;20264;-89
2023/11/21 08:36:25;;;;;;;40.80;26.27;;;11.70;99.90;;;;;;5061078;28;20258;-92
2023/11/21 08:38:54;;;;;;;45.90;27.33;;;12.00;99.90;;;;;;5059121;28;20180;-91
2023/11/21 08:41:21;;;;;;;42.00;26.70;;;12.00;99.90;;;;;;5060918;28;20198;-92
2023/11/21 08:43:49;;;;;;;43.87;28.13;;;12.00;99.90;;;;;;5056980;28;20267;-89
2023/11/21 08:46:16;;;;;;;46.83;27.33;;;12.10;99.90;;;;;;5062074;28;20172;-90
2023/11/21 08:48:43;;;;;;;45.70;26.33;;;12.00;99.90;;;;;;5055939;28;20177;-90
2023/11/21 08:51:11;;;;;;;40.60;27.20;;;12.00;99.90;;;;;;5056041;28;20175;-92
2023/11/21 08:53:37;;;;;;;42.33;27.73;;;12.10;99.90;;;;;;5054981;28;20180;-92
2023/11/21 08:56:04;;;;;;;39.87;26.73;;;12.10;99.90;;;;;;5054312;28;20268;-90
2023/11/21 08:58:32;;;;;;;43.77;27.83;;;12.10;99.90;;;;;;5054998;28;20210;-91
2023/11/21 09:00:58;;;;;;;43.80;27.43;;;12.10;99.90;;;;;;5054098;28;20262;-91
2023/11/21 09:03:24;;;;;;;42.00;28.87;;;12.00;99.90;;;;;;5053764;28;20183;-90
2023/11/21 09:05:50;;;;;;;44.87;27.70;;;12.10;99.90;;;;;;5055360;28;20545;-90
2023/11/21 09:08:16;;;;;;;39.40;26.83;;;12.20;99.90;;;;;;5062204;28;20174;-94
2023/11/21 09:10:43;;;;;;;41.73;26.77;;;12.10;99.90;;;;;;5060412;28;20197;-91
2023/11/21 09:13:08;;;;;;;40.30;26.00;;;12.10;99.90;;;;;;5063868;28;20174;-91
2023/11/21 09:15:35;;;;;;;44.13;27.07;;;12.10;99.90;;;;;;5061463;28;20645;-90
2023/11/21 09:18:01;;;;;;;40.60;25.70;;;12.20;99.90;;;;;;5055826;28;20196;-92
2023/11/21 09:20:28;;;;;;;43.37;26.77;;;12.20;99.90;;;;;;5056768;28;20191;-89
2023/11/21 09:22:55;;;;;;;41.53;26.37;;;12.30;99.90;;;;;;5066919;28;20173;-92
2023/11/21 09:25:21;;;;;;;41.93;26.70;;;12.40;99.90;;;;;;5067353;28;20197;-89
2023/11/21 09:27:47;;;;;;;42.13;26.90;;;12.30;99.90;;;;;;5060460;28;20251;-89
2023/11/21 09:30:14;;;;;;;36.67;25.63;;;12.30;99.90;;;;;;5059498;28;20253;-89
2023/11/21 09:32:40;;;;;;;44.10;26.63;;;12.20;99.90;;;;;;5069630;28;20179;-91
2023/11/21 09:35:08;;;;;;;45.33;28.17;;;12.30;99.90;;;;;;5058593;28;20181;-88
2023/11/21 09:37:35;;;;;;;41.83;26.67;;;12.30;99.90;;;;;;5057475;28;20216;-90
2023/11/21 09:40:01;;;;;;;41.50;26.53;;;12.30;99.90;;;;;;5056359;28;20265;-90
2023/11/21 09:42:37;;;;;;;44.40;26.13;;;12.30;99.90;;;;;;5056099;28;20201;-91
2023/11/21 09:45:07;;;;;;;37.40;25.40;;;12.20;99.90;;;;;;5041154;28;20642;-92
2023/11/21 09:47:38;;;;;;;39.10;25.83;;;12.20;99.90;;;;;;5055698;28;20180;-89
2023/11/21 09:50:07;;;;;;;42.50;26.73;;;12.20;99.90;;;;;;5051171;28;20267;-91
2023/11/21 09:53:02;;;;;;;42.90;26.33;;;12.20;99.90;;;;;;5060722;28;20701;-90
2023/11/21 09:55:35;;;;;;;40.27;26.20;;;12.10;99.90;;;;;;5041833;28;20201;-92
2023/11/21 09:58:02;;;;;;;39.40;27.47;;;12.20;99.90;;;;;;5057948;28;20182;-90
2023/11/21 10:00:30;;;;;;;46.07;29.30;;;12.30;99.90;;;;;;5060130;28;20226;-92
2023/11/21 10:02:58;;;;;;;40.80;27.53;;;12.10;99.90;;;;;;5059266;28;20177;-91
2023/11/21 10:05:24;;;;;;;39.87;25.80;;;12.00;99.90;;;;;;5069828;28;20241;-91
2023/11/21 10:07:50;;;;;;;31.70;22.27;;;12.00;99.90;;;;;;5070852;28;20188;-90
2023/11/21 10:10:19;;;;;;;29.37;20.87;;;11.90;99.90;;;;;;5060020;28;20169;-90
2023/11/21 10:12:53;;;;;;;26.73;19.27;;;11.80;99.90;;;;;;5058057;28;20181;-90
2023/11/21 10:15:22;;;;;;;23.27;16.67;;;11.60;99.90;;;;;;5059434;28;20185;-89
2023/11/21 10:17:49;;;;;;;24.73;17.47;;;11.40;99.90;;;;;;5059428;28;20237;-92
2023/11/21 10:20:16;;;;;;;26.03;19.27;;;11.30;99.90;;;;;;5058757;28;20214;-92
2023/11/21 10:22:42;;;;;;;24.83;18.47;;;11.30;99.90;;;;;;5057098;28;20268;-89
2023/11/21 10:25:09;;;;;;;28.67;19.50;;;11.40;99.90;;;;;;5058284;28;20185;-91
2023/11/21 10:27:38;;;;;;;23.87;18.70;;;11.30;99.90;;;;;;5061111;28;20180;-91
2023/11/21 10:30:28;;;;;;;28.87;20.20;;;11.40;99.90;;;;;;5068050;28;20170;-91
2023/11/21 10:33:02;;;;;;;25.37;19.57;;;11.40;99.90;;;;;;5043187;28;20175;-90
2023/11/21 10:35:51;;;;;;;26.87;18.90;;;11.50;99.90;;;;;;5058232;28;20191;-90
2023/11/21 10:38:25;;;;;;;25.43;19.87;;;11.50;99.90;;;;;;5057722;28;20189;-91
2023/11/21 10:40:52;;;;;;;23.57;19.47;;;11.60;99.90;;;;;;5057660;28;20170;-91
2023/11/21 10:43:18;;;;;;;25.40;20.00;;;11.60;99.90;;;;;;5058535;28;20172;-88
2023/11/21 10:45:44;;;;;;;31.87;20.30;;;11.60;99.90;;;;;;5057826;28;20174;-92
2023/11/21 10:48:15;;;;;;;26.50;19.93;;;11.70;99.90;;;;;;5060845;28;20202;-91
2023/11/21 10:50:40;;;;;;;24.43;19.60;;;11.70;99.90;;;;;;5056410;28;20210;-90
2023/11/21 10:53:06;;;;;;;27.70;21.33;;;11.80;99.90;;;;;;5054250;28;20184;-91
2023/11/21 10:55:33;;;;;;;28.60;22.17;;;11.80;99.90;;;;;;5046362;28;20217;-91
2023/11/21 10:58:03;;;;;;;30.83;23.17;;;11.90;99.90;;;;;;5037145;28;20194;-91
2023/11/21 11:00:29;;;;;;;29.20;22.93;;;11.90;99.90;;;;;;5037008;28;20178;-92
2023/11/21 11:02:58;;;;;;;31.30;23.90;;;12.00;99.90;;;;;;5039363;28;20176;-92
2023/11/21 11:05:35;;;;;;;33.13;25.00;;;12.00;99.90;;;;;;5038251;28;20230;-91
2023/11/21 11:08:08;;;;;;;31.37;24.13;;;12.00;99.90;;;;;;5038576;28;20227;-90
2023/11/21 11:10:34;;;;;;;30.37;24.20;;;12.10;99.90;;;;;;5038141;28;20182;-87
2023/11/21 11:13:01;;;;;;;31.67;24.47;;;12.20;99.90;;;;;;5038304;28;20519;-87
2023/11/21 11:15:27;;;;;;;32.60;25.00;;;12.10;99.90;;;;;;5050844;28;20249;-88
2023/11/21 11:17:57;;;;;;;28.77;23.23;;;12.30;99.90;;;;;;5036851;28;20217;-87
2023/11/21 11:20:27;;;;;;;33.97;25.10;;;12.20;99.90;;;;;;5035664;28;20201;-90
2023/11/21 11:23:02;;;;;;;33.43;25.07;;;12.40;99.90;;;;;;5041082;28;20680;-86
2023/11/21 11:25:47;;;;;;;32.73;23.93;;;12.20;99.90;;;;;;5051737;28;20177;-86
2023/11/21 11:28:20;;;;;;;30.70;23.57;;;12.20;99.90;;;;;;5053542;28;20165;-87
2023/11/21 11:31:04;;;;;;;27.20;22.03;;;12.10;99.90;;;;;;5046519;28;20234;-87
2023/11/21 11:33:42;;;;;;;26.80;21.30;;;12.20;99.90;;;;;;5049975;28;20173;-86
2023/11/21 11:36:17;;;;;;;29.50;22.60;;;12.20;99.90;;;;;;5048923;28;20217;-89
2023/11/21 11:38:46;;;;;;;28.67;22.70;;;12.10;99.90;;;;;;5037700;28;20193;-91
2023/11/21 11:41:12;;;;;;;26.90;21.80;;;12.20;99.90;;;;;;5042456;28;20173;-89
2023/11/21 11:43:44;;;;;;;24.53;21.13;;;12.30;99.90;;;;;;5046996;28;20521;-91
2023/11/21 11:46:13;;;;;;;27.37;21.43;;;12.30;99.90;;;;;;5037111;28;20173;-89
2023/11/21 11:48:45;;;;;;;26.23;21.33;;;12.30;99.90;;;;;;5036290;28;20194;-91
2023/11/21 11:51:21;;;;;;;22.20;18.40;;;12.30;99.90;;;;;;5035529;28;20177;-88
2023/11/21 11:53:51;;;;;;;19.73;16.83;;;12.20;99.90;;;;;;5039775;28;20181;-92
2023/11/21 11:56:26;;;;;;;21.50;17.73;;;12.10;99.90;;;;;;5036042;28;20228;-88
2023/11/21 11:58:54;;;;;;;19.17;15.70;;;12.10;99.90;;;;;;5040965;28;20205;-90
2023/11/21 12:01:22;;;;;;;21.17;16.40;;;12.10;99.90;;;;;;5051187;28;20176;-92
2023/11/21 12:04:16;;;;;;;17.50;14.23;;;12.10;99.90;;;;;;5053346;28;20204;-90
2023/11/21 12:06:43;;;;;;;16.23;14.53;;;12.10;99.90;;;;;;5051016;28;20181;-90
2023/11/21 12:09:26;;;;;;;16.87;13.53;;;11.90;99.90;;;;;;5051803;28;20241;-92
2023/11/21 12:11:54;;;;;;;17.10;12.73;;;12.00;99.90;;;;;;5045131;28;20242;-90
2023/11/21 12:14:31;;;;;;;15.47;13.03;;;12.00;99.90;;;;;;5043805;28;20161;-90
2023/11/21 12:16:57;;;;;;;16.83;13.43;;;11.90;99.90;;;;;;5043050;28;20500;-90
2023/11/21 12:19:23;;;;;;;16.40;13.40;;;12.00;99.90;;;;;;5046645;28;20179;-89
2023/11/21 12:21:49;;;;;;;14.57;11.10;;;12.00;99.90;;;;;;5046238;28;20199;-86
2023/11/21 12:24:20;;;;;;;13.50;11.53;;;12.10;99.90;;;;;;5045502;28;20195;-90
2023/11/21 12:26:45;;;;;;;15.03;11.93;;;11.90;99.90;;;;;;5039490;28;20181;-90
2023/11/21 12:29:13;;;;;;;16.13;12.70;;;11.90;99.90;;;;;;5038795;28;20211;-89